Terminal Aerodrome Forecast
Issued by NWS

Home | Current Version | Previous Version | Graphics & Text | Print | Product List | Glossary On
Versions: 1 2 3 4 5 6 7 8 9 10 11 12 13 14 15 16 17 18 19 20 21 22 23 24 25
000
FTUS43 KICT 302340
TAFRSL
TAF
KRSL 302340Z 0100/0124 28017KT P6SM OVC035
     FM010130 31009KT P6SM OVC025
     FM011000 29007KT P6SM OVC013
     FM011200 33013KT P6SM OVC008
     FM011500 35017KT P6SM OVC015=

USA.gov is the U.S. government's official web portal to all federal, state and local government web resources and services.